sensor_id;sensor_type;location;lat;lon;timestamp;pressure;altitude;pressure_sealevel;temperature;humidity
45467;BME280;31212;49.734;8.490;2023-03-20T00:00:55;100852.22;;;5.98;100.00
45467;BME280;31212;49.734;8.490;2023-03-20T00:03:23;100864.91;;;6.21;100.00
45467;BME280;31212;49.734;8.490;2023-03-20T00:05:50;100853.97;;;6.30;100.00
45467;BME280;31212;49.734;8.490;2023-03-20T00:08:17;100857.53;;;6.35;100.00
45467;BME280;31212;49.734;8.490;2023-03-20T00:10:45;100856.78;;;6.39;100.00
45467;BME280;31212;49.734;8.490;2023-03-20T00:13:13;100851.66;;;6.40;100.00
45467;BME280;31212;49.734;8.490;2023-03-20T00:15:42;100854.41;;;6.45;100.00
45467;BME280;31212;49.734;8.490;2023-03-20T00:18:13;100857.13;;;6.51;100.00
45467;BME280;31212;49.734;8.490;2023-03-20T00:20:42;100853.03;;;6.60;100.00
45467;BME280;31212;49.734;8.490;2023-03-20T00:23:08;100864.56;;;6.72;100.00
45467;BME280;31212;49.734;8.490;2023-03-20T00:25:36;100864.94;;;6.88;100.00
45467;BME280;31212;49.734;8.490;2023-03-20T00:28:21;100876.59;;;7.07;100.00
45467;BME280;31212;49.734;8.490;2023-03-20T00:30:51;100867.47;;;7.20;100.00
45467;BME280;31212;49.734;8.490;2023-03-20T00:33:20;100870.91;;;7.20;100.00
45467;BME280;31212;49.734;8.490;2023-03-20T00:35:49;100872.06;;;7.32;100.00
45467;BME280;31212;49.734;8.490;2023-03-20T00:38:15;100876.47;;;7.36;100.00
45467;BME280;31212;49.734;8.490;2023-03-20T00:40:42;100873.13;;;7.40;100.00
45467;BME280;31212;49.734;8.490;2023-03-20T00:43:12;100874.19;;;7.50;100.00
45467;BME280;31212;49.734;8.490;2023-03-20T00:45:40;100864.91;;;7.58;100.00
45467;BME280;31212;49.734;8.490;2023-03-20T00:48:12;100865.78;;;7.58;100.00
45467;BME280;31212;49.734;8.490;2023-03-20T00:50:40;100866.88;;;7.68;100.00
45467;BME280;31212;49.734;8.490;2023-03-20T00:53:10;100867.97;;;7.80;100.00
45467;BME280;31212;49.734;8.490;2023-03-20T00:55:37;100867.19;;;7.84;100.00
45467;BME280;31212;49.734;8.490;2023-03-20T00:58:05;100861.88;;;7.76;100.00
45467;BME280;31212;49.734;8.490;2023-03-20T01:00:37;100862.91;;;7.84;100.00
45467;BME280;31212;49.734;8.490;2023-03-20T01:03:14;100866.38;;;7.86;100.00
45467;BME280;31212;49.734;8.490;2023-03-20T01:05:42;100868.94;;;7.85;100.00
45467;BME280;31212;49.734;8.490;2023-03-20T01:08:15;100870.78;;;7.90;100.00
45467;BME280;31212;49.734;8.490;2023-03-20T01:10:43;100874.13;;;7.85;100.00
45467;BME280;31212;49.734;8.490;2023-03-20T01:13:16;100863.00;;;7.89;100.00
45467;BME280;31212;49.734;8.490;2023-03-20T01:15:45;100865.59;;;7.90;100.00
45467;BME280;31212;49.734;8.490;2023-03-20T01:18:12;100866.59;;;7.96;100.00
45467;BME280;31212;49.734;8.490;2023-03-20T01:20:39;100864.06;;;7.99;100.00
45467;BME280;31212;49.734;8.490;2023-03-20T01:23:06;100866.44;;;7.89;100.00
45467;BME280;31212;49.734;8.490;2023-03-20T01:25:35;100862.97;;;7.87;100.00
45467;BME280;31212;49.734;8.490;2023-03-20T01:28:03;100872.34;;;7.84;100.00
45467;BME280;31212;49.734;8.490;2023-03-20T01:30:37;100875.19;;;7.95;100.00
45467;BME280;31212;49.734;8.490;2023-03-20T01:33:11;100874.06;;;7.82;100.00
45467;BME280;31212;49.734;8.490;2023-03-20T01:35:39;100880.91;;;7.81;100.00
45467;BME280;31212;49.734;8.490;2023-03-20T01:38:11;100884.22;;;7.74;100.00
45467;BME280;31212;49.734;8.490;2023-03-20T01:40:45;100892.81;;;7.74;100.00
45467;BME280;31212;49.734;8.490;2023-03-20T01:43:16;100893.78;;;7.78;100.00
45467;BME280;31212;49.734;8.490;2023-03-20T01:45:54;100891.97;;;7.74;100.00
45467;BME280;31212;49.734;8.490;2023-03-20T01:48:26;100892.81;;;7.73;100.00
45467;BME280;31212;49.734;8.490;2023-03-20T01:50:56;100889.41;;;7.75;100.00
45467;BME280;31212;49.734;8.490;2023-03-20T01:53:26;100891.19;;;7.78;100.00
45467;BME280;31212;49.734;8.490;2023-03-20T01:55:59;100887.81;;;7.81;100.00
45467;BME280;31212;49.734;8.490;2023-03-20T01:58:37;100883.44;;;7.78;100.00
45467;BME280;31212;49.734;8.490;2023-03-20T02:01:10;100885.03;;;7.73;100.00
45467;BME280;31212;49.734;8.490;2023-03-20T02:03:42;100887.53;;;7.68;100.00
45467;BME280;31212;49.734;8.490;2023-03-20T02:06:25;100889.31;;;7.71;100.00
45467;BME280;31212;49.734;8.490;2023-03-20T02:09:12;100890.97;;;7.67;100.00
45467;BME280;31212;49.734;8.490;2023-03-20T02:11:44;100894.47;;;7.69;100.00
45467;BME280;31212;49.734;8.490;2023-03-20T02:14:12;100895.31;;;7.70;100.00
45467;BME280;31212;49.734;8.490;2023-03-20T02:16:52;100893.53;;;7.67;100.00
45467;BME280;31212;49.734;8.490;2023-03-20T02:19:48;100902.16;;;7.68;100.00
45467;BME280;31212;49.734;8.490;2023-03-20T02:22:43;100895.25;;;7.67;100.00
45467;BME280;31212;49.734;8.490;2023-03-20T02:31:53;100895.38;;;7.73;100.00
45467;BME280;31212;49.734;8.490;2023-03-20T02:34:42;100899.75;;;7.75;100.00
45467;BME280;31212;49.734;8.490;2023-03-20T02:37:42;100890.16;;;7.70;100.00
45467;BME280;31212;49.734;8.490;2023-03-20T02:40:21;100901.34;;;7.70;100.00
45467;BME280;31212;49.734;8.490;2023-03-20T02:42:55;100897.97;;;7.73;100.00
45467;BME280;31212;49.734;8.490;2023-03-20T02:45:26;100900.53;;;7.71;100.00
45467;BME280;31212;49.734;8.490;2023-03-20T02:48:13;100907.47;;;7.74;100.00
45467;BME280;31212;49.734;8.490;2023-03-20T02:50:46;100899.78;;;7.77;100.00
45467;BME280;31212;49.734;8.490;2023-03-20T02:53:25;100904.09;;;7.77;100.00
45467;BME280;31212;49.734;8.490;2023-03-20T02:55:58;100904.03;;;7.73;100.00
45467;BME280;31212;49.734;8.490;2023-03-20T02:58:29;100909.22;;;7.75;100.00
45467;BME280;31212;49.734;8.490;2023-03-20T03:01:05;100907.47;;;7.74;100.00
45467;BME280;31212;49.734;8.490;2023-03-20T03:03:37;100908.44;;;7.78;100.00
45467;BME280;31212;49.734;8.490;2023-03-20T03:06:09;100909.19;;;7.73;100.00
45467;BME280;31212;49.734;8.490;2023-03-20T03:08:47;100915.41;;;7.82;100.00
45467;BME280;31212;49.734;8.490;2023-03-20T03:11:15;100911.91;;;7.80;100.00
45467;BME280;31212;49.734;8.490;2023-03-20T03:13:46;100910.06;;;7.74;100.00
45467;BME280;31212;49.734;8.490;2023-03-20T03:16:17;100903.22;;;7.76;100.00
45467;BME280;31212;49.734;8.490;2023-03-20T03:18:45;100903.13;;;7.73;100.00
45467;BME280;31212;49.734;8.490;2023-03-20T03:21:15;100904.03;;;7.73;100.00
45467;BME280;31212;49.734;8.490;2023-03-20T03:23:46;100902.31;;;7.74;100.00
45467;BME280;31212;49.734;8.490;2023-03-20T03:26:17;100903.09;;;7.71;100.00
45467;BME280;31212;49.734;8.490;2023-03-20T03:28:47;100894.63;;;7.77;100.00
45467;BME280;31212;49.734;8.490;2023-03-20T03:31:17;100890.22;;;7.73;100.00
45467;BME280;31212;49.734;8.490;2023-03-20T03:33:45;100888.56;;;7.75;100.00
45467;BME280;31212;49.734;8.490;2023-03-20T03:36:24;100891.97;;;7.74;100.00
45467;BME280;31212;49.734;8.490;2023-03-20T03:38:57;100892.75;;;7.70;100.00
45467;BME280;31212;49.734;8.490;2023-03-20T03:41:29;100896.13;;;7.67;100.00
45467;BME280;31212;49.734;8.490;2023-03-20T03:44:07;100903.81;;;7.64;100.00
45467;BME280;31212;49.734;8.490;2023-03-20T03:46:40;100902.22;;;7.69;100.00
45467;BME280;31212;49.734;8.490;2023-03-20T03:49:14;100909.19;;;7.73;100.00
45467;BME280;31212;49.734;8.490;2023-03-20T03:51:43;100910.13;;;7.77;100.00
45467;BME280;31212;49.734;8.490;2023-03-20T03:54:17;100912.91;;;7.86;100.00
45467;BME280;31212;49.734;8.490;2023-03-20T03:57:00;100914.59;;;7.84;100.00
45467;BME280;31212;49.734;8.490;2023-03-20T03:59:31;100915.53;;;7.88;100.00
45467;BME280;31212;49.734;8.490;2023-03-20T04:02:01;100926.66;;;7.85;100.00
45467;BME280;31212;49.734;8.490;2023-03-20T04:04:31;100920.69;;;7.88;100.00
45467;BME280;31212;49.734;8.490;2023-03-20T04:06:58;100925.81;;;7.85;100.00
45467;BME280;31212;49.734;8.490;2023-03-20T04:09:27;100921.56;;;7.87;100.00
45467;BME280;31212;49.734;8.490;2023-03-20T04:11:54;100925.78;;;7.83;100.00
45467;BME280;31212;49.734;8.490;2023-03-20T04:14:21;100925.81;;;7.85;100.00
45467;BME280;31212;49.734;8.490;2023-03-20T04:16:48;100925.00;;;7.87;100.00
45467;BME280;31212;49.734;8.490;2023-03-20T04:19:14;100921.47;;;7.84;100.00
45467;BME280;31212;49.734;8.490;2023-03-20T04:21:43;100919.13;;;7.95;100.00
45467;BME280;31212;49.734;8.490;2023-03-20T04:24:11;100915.66;;;7.93;100.00
45467;BME280;31212;49.734;8.490;2023-03-20T04:26:39;100908.81;;;7.96;100.00
45467;BME280;31212;49.734;8.490;2023-03-20T04:29:06;100908.91;;;7.99;100.00
45467;BME280;31212;49.734;8.490;2023-03-20T04:31:55;100903.75;;;8.01;100.00
45467;BME280;31212;49.734;8.490;2023-03-20T04:34:44;100914.06;;;7.99;100.00
45467;BME280;31212;49.734;8.490;2023-03-20T04:37:33;100914.88;;;7.97;100.00
45467;BME280;31212;49.734;8.490;2023-03-20T04:40:06;100921.09;;;8.05;100.00
45467;BME280;31212;49.734;8.490;2023-03-20T04:42:36;100919.25;;;7.99;100.00
45467;BME280;31212;49.734;8.490;2023-03-20T04:45:06;100923.56;;;8.00;100.00
45467;BME280;31212;49.734;8.490;2023-03-20T04:47:35;100932.25;;;8.04;100.00
45467;BME280;31212;49.734;8.490;2023-03-20T04:50:04;100928.66;;;7.97;100.00
45467;BME280;31212;49.734;8.490;2023-03-20T04:52:31;100935.66;;;8.01;100.00
45467;BME280;31212;49.734;8.490;2023-03-20T04:54:58;100941.78;;;8.05;100.00
45467;BME280;31212;49.734;8.490;2023-03-20T04:57:25;100942.66;;;8.07;100.00
45467;BME280;31212;49.734;8.490;2023-03-20T04:59:54;100935.75;;;8.04;100.00
45467;BME280;31212;49.734;8.490;2023-03-20T05:02:21;100937.59;;;8.12;100.00
45467;BME280;31212;49.734;8.490;2023-03-20T05:04:47;100941.06;;;8.12;100.00
45467;BME280;31212;49.734;8.490;2023-03-20T05:07:14;100942.75;;;8.10;100.00
45467;BME280;31212;49.734;8.490;2023-03-20T05:09:52;100943.66;;;8.14;100.00
45467;BME280;31212;49.734;8.490;2023-03-20T05:12:19;100942.91;;;8.18;100.00
45467;BME280;31212;49.734;8.490;2023-03-20T05:15:10;100940.06;;;8.07;100.00
45467;BME280;31212;49.734;8.490;2023-03-20T05:17:57;100944.34;;;8.03;100.00
45467;BME280;31212;49.734;8.490;2023-03-20T05:20:36;100945.06;;;7.98;100.00
45467;BME280;31212;49.734;8.490;2023-03-20T05:23:26;100950.19;;;7.96;100.00
45467;BME280;31212;49.734;8.490;2023-03-20T05:26:14;100951.16;;;8.01;100.00
45467;BME280;31212;49.734;8.490;2023-03-20T05:28:53;100948.56;;;8.01;100.00
45467;BME280;31212;49.734;8.490;2023-03-20T05:31:39;100946.16;;;8.09;100.00
45467;BME280;31212;49.734;8.490;2023-03-20T05:34:31;100941.16;;;8.15;100.00
45467;BME280;31212;49.734;8.490;2023-03-20T05:37:08;100933.41;;;8.17;100.00
45467;BME280;31212;49.734;8.490;2023-03-20T05:39:58;100925.47;;;8.09;100.00
45467;BME280;31212;49.734;8.490;2023-03-20T05:42:43;100921.25;;;8.13;100.00
45467;BME280;31212;49.734;8.490;2023-03-20T05:45:36;100925.50;;;8.11;100.00
45467;BME280;31212;49.734;8.490;2023-03-20T05:48:14;100934.91;;;8.07;100.00
45467;BME280;31212;49.734;8.490;2023-03-20T05:51:06;100937.50;;;8.07;100.00
45467;BME280;31212;49.734;8.490;2023-03-20T05:53:58;100938.38;;;8.07;100.00
45467;BME280;31212;49.734;8.490;2023-03-20T05:56:52;100942.84;;;8.15;100.00
45467;BME280;31212;49.734;8.490;2023-03-20T05:59:32;100955.81;;;8.18;100.00
45467;BME280;31212;49.734;8.490;2023-03-20T06:02:24;100955.81;;;8.18;100.00
45467;BME280;31212;49.734;8.490;2023-03-20T06:05:01;100959.34;;;8.20;100.00
45467;BME280;31212;49.734;8.490;2023-03-20T06:07:33;100966.28;;;8.22;100.00
45467;BME280;31212;49.734;8.490;2023-03-20T06:10:06;100966.47;;;8.30;100.00
45467;BME280;31212;49.734;8.490;2023-03-20T06:12:33;100958.75;;;8.33;100.00
45467;BME280;31212;49.734;8.490;2023-03-20T06:15:00;100956.16;;;8.32;100.00
45467;BME280;31212;49.734;8.490;2023-03-20T06:17:30;100963.97;;;8.35;100.00
45467;BME280;31212;49.734;8.490;2023-03-20T06:20:03;100959.72;;;8.37;100.00
45467;BME280;31212;49.734;8.490;2023-03-20T06:22:30;100965.03;;;8.45;100.00
45467;BME280;31212;49.734;8.490;2023-03-20T06:24:56;100966.81;;;8.46;100.00
45467;BME280;31212;49.734;8.490;2023-03-20T06:27:31;100965.94;;;8.45;100.00
45467;BME280;31212;49.734;8.490;2023-03-20T06:29:57;100975.50;;;8.49;100.00
45467;BME280;31212;49.734;8.490;2023-03-20T06:32:29;100975.34;;;8.43;100.00
45467;BME280;31212;49.734;8.490;2023-03-20T06:34:58;100976.44;;;8.53;100.00
45467;BME280;31212;49.734;8.490;2023-03-20T06:37:27;100981.41;;;8.44;100.00
45467;BME280;31212;49.734;8.490;2023-03-20T06:40:00;100983.34;;;8.54;100.00
45467;BME280;31212;49.734;8.490;2023-03-20T06:42:28;100985.91;;;8.52;100.00
45467;BME280;31212;49.734;8.490;2023-03-20T06:44:55;100984.19;;;8.53;100.00
45467;BME280;31212;49.734;8.490;2023-03-20T06:47:43;100991.06;;;8.51;100.00
45467;BME280;31212;49.734;8.490;2023-03-20T06:50:12;100990.22;;;8.50;100.00
45467;BME280;31212;49.734;8.490;2023-03-20T06:52:40;100990.31;;;8.56;100.00
45467;BME280;31212;49.734;8.490;2023-03-20T06:55:27;100985.97;;;8.55;100.00
45467;BME280;31212;49.734;8.490;2023-03-20T06:57:54;100988.53;;;8.54;100.00
45467;BME280;31212;49.734;8.490;2023-03-20T07:00:21;100989.44;;;8.54;100.00
45467;BME280;31212;49.734;8.490;2023-03-20T07:02:48;100991.09;;;8.52;100.00
45467;BME280;31212;49.734;8.490;2023-03-20T07:05:15;100982.13;;;8.38;100.00
45467;BME280;31212;49.734;8.490;2023-03-20T07:07:44;100994.25;;;8.40;100.00
45467;BME280;31212;49.734;8.490;2023-03-20T07:10:11;100994.94;;;8.32;100.00
45467;BME280;31212;49.734;8.490;2023-03-20T07:12:40;100992.44;;;8.36;100.00
45467;BME280;31212;49.734;8.490;2023-03-20T07:15:08;100989.03;;;8.37;100.00
45467;BME280;31212;49.734;8.490;2023-03-20T07:17:35;100995.31;;;8.49;100.00
45467;BME280;31212;49.734;8.490;2023-03-20T07:20:03;100999.25;;;8.71;100.00
45467;BME280;31212;49.734;8.490;2023-03-20T07:22:30;101001.03;;;8.73;100.00
45467;BME280;31212;49.734;8.490;2023-03-20T07:25:17;101002.88;;;8.81;100.00
45467;BME280;31212;49.734;8.490;2023-03-20T07:27:44;101002.09;;;8.85;100.00
45467;BME280;31212;49.734;8.490;2023-03-20T07:30:16;101008.31;;;8.93;100.00
45467;BME280;31212;49.734;8.490;2023-03-20T07:35:38;100999.13;;;9.11;100.00
45467;BME280;31212;49.734;8.490;2023-03-20T07:38:05;101002.81;;;9.22;100.00
45467;BME280;31212;49.734;8.490;2023-03-20T07:40:38;101011.63;;;9.32;100.00
45467;BME280;31212;49.734;8.490;2023-03-20T07:43:09;101003.69;;;9.24;100.00
45467;BME280;31212;49.734;8.490;2023-03-20T07:45:55;101001.94;;;9.23;100.00
45467;BME280;31212;49.734;8.490;2023-03-20T07:48:21;101015.78;;;9.22;100.00
45467;BME280;31212;49.734;8.490;2023-03-20T07:50:48;101014.72;;;9.14;100.00
45467;BME280;31212;49.734;8.490;2023-03-20T07:53:14;101022.44;;;9.11;100.00
45467;BME280;31212;49.734;8.490;2023-03-20T07:55:43;101025.03;;;9.11;100.00
45467;BME280;31212;49.734;8.490;2023-03-20T07:58:10;101026.81;;;9.13;100.00
45467;BME280;31212;49.734;8.490;2023-03-20T08:00:37;101025.16;;;9.17;100.00
45467;BME280;31212;49.734;8.490;2023-03-20T08:03:04;101027.69;;;9.14;100.00
45467;BME280;31212;49.734;8.490;2023-03-20T08:05:30;101025.94;;;9.11;100.00
45467;BME280;31212;49.734;8.490;2023-03-20T08:07:56;101029.47;;;9.16;100.00
45467;BME280;31212;49.734;8.490;2023-03-20T08:10:23;101029.53;;;9.19;100.00
45467;BME280;31212;49.734;8.490;2023-03-20T08:12:51;101025.47;;;9.34;100.00
45467;BME280;31212;49.734;8.490;2023-03-20T08:15:17;101035.19;;;9.46;100.00
45467;BME280;31212;49.734;8.490;2023-03-20T08:17:45;101026.53;;;9.45;100.00
45467;BME280;31212;49.734;8.490;2023-03-20T08:20:12;101023.19;;;9.52;100.00
45467;BME280;31212;49.734;8.490;2023-03-20T08:22:40;101026.03;;;9.66;100.00
45467;BME280;31212;49.734;8.490;2023-03-20T08:25:08;101026.97;;;9.71;100.00
45467;BME280;31212;49.734;8.490;2023-03-20T08:27:35;101027.25;;;9.88;100.00
45467;BME280;31212;49.734;8.490;2023-03-20T08:30:04;101031.72;;;9.99;100.00
45467;BME280;31212;49.734;8.490;2023-03-20T08:32:31;101026.63;;;10.03;100.00
45467;BME280;31212;49.734;8.490;2023-03-20T08:34:58;101030.22;;;10.13;100.00
45467;BME280;31212;49.734;8.490;2023-03-20T08:37:24;101035.56;;;10.22;100.00
45467;BME280;31212;49.734;8.490;2023-03-20T08:39:51;101031.13;;;10.14;100.00
45467;BME280;31212;49.734;8.490;2023-03-20T08:42:17;101031.06;;;10.12;100.00
45467;BME280;31212;49.734;8.490;2023-03-20T08:44:44;101036.22;;;10.09;100.00
45467;BME280;31212;49.734;8.490;2023-03-20T08:47:13;101038.03;;;10.16;100.00
45467;BME280;31212;49.734;8.490;2023-03-20T08:49:40;101038.00;;;10.13;100.00
45467;BME280;31212;49.734;8.490;2023-03-20T08:52:07;101039.66;;;10.08;100.00
45467;BME280;31212;49.734;8.490;2023-03-20T08:54:34;101047.50;;;10.11;100.00
45467;BME280;31212;49.734;8.490;2023-03-20T08:57:00;101039.47;;;9.96;100.00
45467;BME280;31212;49.734;8.490;2023-03-20T08:59:27;101037.66;;;9.90;100.00
45467;BME280;31212;49.734;8.490;2023-03-20T09:01:54;101040.22;;;9.88;100.00
45467;BME280;31212;49.734;8.490;2023-03-20T09:04:22;101047.25;;;9.96;100.00
45467;BME280;31212;49.734;8.490;2023-03-20T09:06:49;101049.16;;;10.06;100.00
45467;BME280;31212;49.734;8.490;2023-03-20T09:09:16;101048.59;;;10.27;100.00
45467;BME280;31212;49.734;8.490;2023-03-20T09:11:44;101045.41;;;10.42;100.00
45467;BME280;31212;49.734;8.490;2023-03-20T09:14:11;101048.97;;;10.52;100.00
45467;BME280;31212;49.734;8.490;2023-03-20T09:16:37;101037.78;;;10.54;100.00
45467;BME280;31212;49.734;8.490;2023-03-20T09:19:05;101033.44;;;10.55;100.00
45467;BME280;31212;49.734;8.490;2023-03-20T09:21:33;101030.13;;;10.65;99.79
45467;BME280;31212;49.734;8.490;2023-03-20T09:23:59;101027.59;;;10.71;98.08
45467;BME280;31212;49.734;8.490;2023-03-20T09:26:26;101031.41;;;11.01;97.88
45467;BME280;31212;49.734;8.490;2023-03-20T09:28:52;101032.56;;;11.28;97.57
45467;BME280;31212;49.734;8.490;2023-03-20T09:31:21;101015.34;;;11.39;96.17
45467;BME280;31212;49.734;8.490;2023-03-20T09:33:48;101008.56;;;11.55;94.10
45467;BME280;31212;49.734;8.490;2023-03-20T09:36:14;100985.09;;;11.51;92.64
45467;BME280;31212;49.734;8.490;2023-03-20T09:38:42;100994.00;;;11.81;92.58
45467;BME280;31212;49.734;8.490;2023-03-20T09:41:13;100979.31;;;11.83;91.45
45467;BME280;31212;49.734;8.490;2023-03-20T09:43:56;100963.81;;;11.95;90.67
45467;BME280;31212;49.734;8.490;2023-03-20T09:46:40;100965.47;;;11.91;89.65
45467;BME280;31212;49.734;8.490;2023-03-20T09:49:23;100958.50;;;11.87;89.33
45467;BME280;31212;49.734;8.490;2023-03-20T09:51:55;100942.88;;;11.86;89.03
45467;BME280;31212;49.734;8.490;2023-03-20T09:54:26;100942.03;;;11.84;88.13
45467;BME280;31212;49.734;8.490;2023-03-20T09:56:55;100942.03;;;11.84;88.44
45467;BME280;31212;49.734;8.490;2023-03-20T09:59:24;100938.59;;;11.91;87.83
45467;BME280;31212;49.734;8.490;2023-03-20T10:01:52;100923.81;;;11.85;87.82
45467;BME280;31212;49.734;8.490;2023-03-20T10:04:19;100936.06;;;11.99;87.22
45467;BME280;31212;49.734;8.490;2023-03-20T10:06:47;100900.50;;;12.04;86.68
45467;BME280;31212;49.734;8.490;2023-03-20T10:09:15;100891.09;;;12.27;85.85
45467;BME280;31212;49.734;8.490;2023-03-20T10:12:02;100860.75;;;12.50;84.59
45467;BME280;31212;49.734;8.490;2023-03-20T10:14:38;100827.81;;;12.58;83.33
45467;BME280;31212;49.734;8.490;2023-03-20T10:17:26;100833.03;;;12.75;83.39
45467;BME280;31212;49.734;8.490;2023-03-20T10:19:57;100798.31;;;12.64;82.13
45467;BME280;31212;49.734;8.490;2023-03-20T10:22:27;100767.91;;;12.47;81.11
45467;BME280;31212;49.734;8.490;2023-03-20T10:24:59;100759.22;;;12.42;80.98
45467;BME280;31212;49.734;8.490;2023-03-20T10:27:33;100786.13;;;12.52;81.38
45467;BME280;31212;49.734;8.490;2023-03-20T10:30:22;100806.03;;;12.23;82.02
45467;BME280;31212;49.734;8.490;2023-03-20T10:32:58;100829.50;;;12.34;82.67
45467;BME280;31212;49.734;8.490;2023-03-20T10:35:34;100830.31;;;12.22;82.06
45467;BME280;31212;49.734;8.490;2023-03-20T10:38:14;100822.53;;;12.28;82.36
45467;BME280;31212;49.734;8.490;2023-03-20T10:40:43;100815.63;;;12.38;81.97
45467;BME280;31212;49.734;8.490;2023-03-20T10:43:14;100808.66;;;12.39;81.58
45467;BME280;31212;49.734;8.490;2023-03-20T10:45:43;100780.06;;;12.73;80.63
45467;BME280;31212;49.734;8.490;2023-03-20T10:48:20;100720.03;;;13.30;78.61
45467;BME280;31212;49.734;8.490;2023-03-20T10:50:51;100660.69;;;13.82;76.66
45467;BME280;31212;49.734;8.490;2023-03-20T10:53:31;100602.88;;;14.34;74.67
45467;BME280;31212;49.734;8.490;2023-03-20T10:56:04;100451.31;;;15.10;70.60
45467;BME280;31212;49.734;8.490;2023-03-20T10:58:34;100295.03;;;16.16;66.45
45467;BME280;31212;49.734;8.490;2023-03-20T11:01:02;100106.09;;;17.57;60.97
45467;BME280;31212;49.734;8.490;2023-03-20T11:03:30;100066.13;;;18.04;58.80
45467;BME280;31212;49.734;8.490;2023-03-20T11:05:59;100028.59;;;18.00;57.63
45467;BME280;31212;49.734;8.490;2023-03-20T11:08:32;100017.84;;;17.53;57.58
45467;BME280;31212;49.734;8.490;2023-03-20T11:11:01;100070.44;;;17.49;57.71
45467;BME280;31212;49.734;8.490;2023-03-20T11:13:31;100051.19;;;17.21;57.34
45467;BME280;31212;49.734;8.490;2023-03-20T11:16:10;99972.03;;;17.08;56.43
45467;BME280;31212;49.734;8.490;2023-03-20T11:18:40;99972.13;;;16.73;56.21
45467;BME280;31212;49.734;8.490;2023-03-20T11:21:14;100016.84;;;16.37;57.35
45467;BME280;31212;49.734;8.490;2023-03-20T11:23:42;100028.03;;;16.42;57.20
45467;BME280;31212;49.734;8.490;2023-03-20T11:26:11;100066.53;;;16.06;57.99
45467;BME280;31212;49.734;8.490;2023-03-20T11:28:41;100075.31;;;16.05;58.31
45467;BME280;31212;49.734;8.490;2023-03-20T11:31:16;100045.75;;;16.00;57.15
45467;BME280;31212;49.734;8.490;2023-03-20T11:33:46;100038.44;;;16.45;56.77
45467;BME280;31212;49.734;8.490;2023-03-20T11:36:21;99939.84;;;16.73;54.73
45467;BME280;31212;49.734;8.490;2023-03-20T11:38:49;100040.25;;;16.75;55.76
45467;BME280;31212;49.734;8.490;2023-03-20T11:41:18;100000.81;;;16.48;55.32
45467;BME280;31212;49.734;8.490;2023-03-20T11:43:45;99987.97;;;16.06;55.41
45467;BME280;31212;49.734;8.490;2023-03-20T11:46:12;100001.81;;;15.75;56.08
45467;BME280;31212;49.734;8.490;2023-03-20T11:48:42;100031.47;;;15.38;56.45
45467;BME280;31212;49.734;8.490;2023-03-20T11:51:13;100033.72;;;15.53;56.62
45467;BME280;31212;49.734;8.490;2023-03-20T11:53:56;100067.19;;;16.16;56.02
45467;BME280;31212;49.734;8.490;2023-03-20T11:56:26;99995.66;;;16.76;54.51
45467;BME280;31212;49.734;8.490;2023-03-20T11:58:55;99914.63;;;16.69;53.45
45467;BME280;31212;49.734;8.490;2023-03-20T12:01:24;99899.53;;;16.47;53.69
45467;BME280;31212;49.734;8.490;2023-03-20T12:04:00;99858.19;;;16.27;52.97
45467;BME280;31212;49.734;8.490;2023-03-20T12:06:38;99877.19;;;16.04;53.83
45467;BME280;31212;49.734;8.490;2023-03-20T12:09:11;99918.03;;;16.71;53.10
45467;BME280;31212;49.734;8.490;2023-03-20T12:11:45;99870.84;;;17.27;51.90
45467;BME280;31212;49.734;8.490;2023-03-20T12:14:19;99853.25;;;17.56;51.35
45467;BME280;31212;49.734;8.490;2023-03-20T12:16:49;99710.94;;;17.24;50.00
45467;BME280;31212;49.734;8.490;2023-03-20T12:19:23;99872.13;;;17.41;51.91
45467;BME280;31212;49.734;8.490;2023-03-20T12:21:55;99807.88;;;17.02;51.24
45467;BME280;31212;49.734;8.490;2023-03-20T12:24:29;99793.78;;;16.50;51.49
45467;BME280;31212;49.734;8.490;2023-03-20T12:27:16;99793.06;;;16.44;51.48
45467;BME280;31212;49.734;8.490;2023-03-20T12:29:47;99823.59;;;16.45;52.10
45467;BME280;31212;49.734;8.490;2023-03-20T12:32:23;99763.75;;;16.31;50.84
45467;BME280;31212;49.734;8.490;2023-03-20T12:34:56;99745.19;;;16.39;50.40
45467;BME280;31212;49.734;8.490;2023-03-20T12:37:27;99590.88;;;16.06;48.38
45467;BME280;31212;49.734;8.490;2023-03-20T12:39:57;99617.34;;;16.24;48.63
45467;BME280;31212;49.734;8.490;2023-03-20T12:42:35;99675.97;;;15.91;49.48
45467;BME280;31212;49.734;8.490;2023-03-20T12:45:09;99696.81;;;15.94;49.82
45467;BME280;31212;49.734;8.490;2023-03-20T12:47:50;99641.44;;;16.07;48.51
45467;BME280;31212;49.734;8.490;2023-03-20T12:50:25;99689.59;;;16.03;49.05
45467;BME280;31212;49.734;8.490;2023-03-20T12:53:05;99672.94;;;16.05;48.53
45467;BME280;31212;49.734;8.490;2023-03-20T12:55:44;99664.69;;;15.89;49.12
45467;BME280;31212;49.734;8.490;2023-03-20T12:58:19;99626.66;;;15.76;48.46
45467;BME280;31212;49.734;8.490;2023-03-20T13:00:54;99699.22;;;15.71;49.69
45467;BME280;31212;49.734;8.490;2023-03-20T13:03:35;99721.66;;;15.81;49.68
45467;BME280;31212;49.734;8.490;2023-03-20T13:06:13;99641.13;;;15.59;49.01
45467;BME280;31212;49.734;8.490;2023-03-20T13:08:46;99639.63;;;15.52;48.86
45467;BME280;31212;49.734;8.490;2023-03-20T13:11:19;99612.22;;;15.34;49.13
45467;BME280;31212;49.734;8.490;2023-03-20T13:13:51;99686.47;;;15.28;49.79
45467;BME280;31212;49.734;8.490;2023-03-20T13:16:25;99617.66;;;15.26;48.79
45467;BME280;31212;49.734;8.490;2023-03-20T13:18:58;99616.28;;;15.14;48.88
45467;BME280;31212;49.734;8.490;2023-03-20T13:21:33;99621.63;;;15.10;48.77
45467;BME280;31212;49.734;8.490;2023-03-20T13:24:08;99584.59;;;14.94;48.63
45467;BME280;31212;49.734;8.490;2023-03-20T13:26:47;99561.63;;;14.75;48.46